• Join FlightAware (Why Join?)
  • Login
  • US Flag 
08:54AM EDT


 

Airport Tracker/Info


-or-


 

Live Flight TrackerFlight Track Log ✈ N913CS ✈ 13-Mar-2014 ✈ KPIE - KCID

Flight Track Log - Related Links

Times and Time Zones

All times are in EDT time to prevent confusion due to time zone crossing. See the N913CS flight status page for this flight to view local times or setup timezone preferences in your user account.

Time Position Orientation Groundspeed Altitude Reporting Facility
EDT Latitude Longitude Course Direction KTS MPH feet Rate Location/Type
04:43PM 27.9333 -82.7000 350° North 191 220 1,200  Level Tampa TRACON
04:44PM 28.0167 -82.7167 350° North 230 265 2,700 1,620 Climbing Tampa TRACON
04:45PM 28.0833 -82.7333 348° North 244 281 5,200 1,620 Climbing Tampa TRACON
04:46PM 28.1500 -82.7833 327° Northwest 258 297 6,000 1,380 Climbing Tampa TRACON
04:48PM 28.2522 -82.7958 354° North 266 306 8,900 1,740 Climbing Jacksonville Center
04:49PM 28.3356 -82.8006 357° North 272 313 10,700 1,800 Climbing Jacksonville Center
04:50PM 28.4233 -82.8028 359° North 293 337 12,600 2,040 Climbing Jacksonville Center
04:51PM 28.5131 -82.8075 357° North 309 356 14,800 2,160 Climbing Jacksonville Center
04:52PM 28.6028 -82.8286 348° North 321 369 17,000 1,620 Climbing Jacksonville Center
04:53PM 28.6819 -82.8761 332° Northwest 316 364 18,100 1,140 Climbing Jacksonville Center
04:54PM 28.7550 -82.9211 332° Northwest 316 364 19,300 1,380 Climbing Jacksonville Center
04:55PM 28.8386 -82.9661 335° Northwest 328 377 20,900 1,260 Climbing Jacksonville Center
04:56PM 28.9242 -83.0136 334° Northwest 328 377 21,900 960 Climbing Jacksonville Center
04:57PM 29.0097 -83.0611 334° Northwest 334 384 22,900 960 Climbing Jacksonville Center
04:58PM 29.0972 -83.1089 334° Northwest 341 392 23,900 1,020 Climbing Jacksonville Center
04:59PM 29.1869 -83.1567 335° Northwest 346 398 25,000 1,020 Climbing Jacksonville Center
05:00PM 29.2767 -83.2022 336° Northwest 346 398 26,000 960 Climbing Jacksonville Center
05:01PM 29.3536 -83.2619 326° Northwest 346 398 27,000 960 Climbing Jacksonville Center
05:02PM 29.4264 -83.3289 321° Northwest 340 391 28,000 960 Climbing Jacksonville Center
05:03PM 29.4972 -83.3961 320° Northwest 330 380 29,000 960 Climbing Jacksonville Center
05:04PM 29.5700 -83.4633 321° Northwest 330 380 30,000 960 Climbing Jacksonville Center
05:05PM 29.6489 -83.5378 321° Northwest 330 380 31,000 900 Climbing Jacksonville Center
05:06PM 29.7217 -83.6028 322° Northwest 330 380 31,900 480 Climbing Jacksonville Center
05:07PM 29.7964 -83.6728 321° Northwest 335 386 32,000 300 Climbing Jacksonville Center
05:08PM 29.8733 -83.7428 322° Northwest 342 394 32,500 720 Climbing Jacksonville Center
05:09PM 29.9481 -83.8106 322° Northwest 342 394 33,500 720 Climbing Jacksonville Center
05:10PM 30.0206 -83.8761 322° Northwest 342 394 34,000 300 Climbing Jacksonville Center
05:11PM 30.0953 -83.9442 322° Northwest 342 394 34,100 540 Climbing Jacksonville Center
05:12PM 30.1697 -84.0147 321° Northwest 347 399 35,100 900 Climbing Jacksonville Center
05:13PM 30.2422 -84.0803 322° Northwest 347 399 35,900 540 Climbing Jacksonville Center
05:14PM 30.3147 -84.1486 321° Northwest 342 394 36,200 600 Climbing Jacksonville Center
05:15PM 30.3786 -84.2072 322° Northwest 342 394 37,100 900 Climbing Jacksonville Center
05:16PM 30.4492 -84.2733 321° Northwest 336 387 38,100 960 Climbing Jacksonville Center
05:17PM 30.5172 -84.3369 321° Northwest 325 374 39,100 900 Climbing Jacksonville Center
05:18PM 30.6000 -84.3986 327° Northwest 325 374 40,000 420 Climbing Jacksonville Center
05:19PM 30.6872 -84.4483 334° Northwest 330 380 40,000  Level Jacksonville Center
05:20PM 30.7575 -84.4881 334° Northwest 336 387 40,000  Level Jacksonville Center
05:21PM 30.8717 -84.5506 335° Northwest 352 405 40,000  Level Jacksonville Center
05:23PM 31.0419 -84.6494 334° Northwest 399 459 40,000  Level Atlanta Center
05:24PM 31.1375 -84.7011 335° Northwest 399 459 40,000  Level Atlanta Center
05:25PM 31.2353 -84.7553 335° Northwest 384 442 40,000  Level Atlanta Center
05:26PM 31.3289 -84.8094 334° Northwest 384 442 40,000  Level Atlanta Center
05:27PM 31.4244 -84.8639 334° Northwest 384 442 40,000  Level Atlanta Center
05:28PM 31.5306 -84.9233 334° Northwest 379 436 40,000  Level Atlanta Center
05:29PM 31.6261 -84.9756 335° Northwest 379 436 40,000  Level Atlanta Center
05:30PM 31.7175 -85.0275 334° Northwest 379 436 40,000  Level Atlanta Center
05:31PM 31.8111 -85.0825 333° Northwest 379 436 40,000  Level Atlanta Center
05:32PM 31.9025 -85.1347 334° Northwest 374 430 40,000  Level Atlanta Center
05:33PM 31.9878 -85.1775 337° Northwest 369 425 40,000  Level Atlanta Center
05:34PM 32.0769 -85.2325 332° Northwest 363 418 40,000  Level Atlanta Center
05:35PM 32.1725 -85.2853 335° Northwest 363 418 40,000  Level Atlanta Center
05:36PM 32.2658 -85.3283 339° North 363 418 40,000  Level Atlanta Center
05:37PM 32.3742 -85.3522 349° North 374 430 40,000  Level Atlanta Center
05:38PM 32.4928 -85.3761 350° North 387 445 40,000  Level Atlanta Center
05:39PM 32.5906 -85.4194 340° North 387 445 40,000  Level Atlanta Center
05:40PM 32.6797 -85.4750 332° Northwest 372 428 40,000  Level Atlanta Center
05:41PM 32.7708 -85.5286 334° Northwest 366 421 40,000  Level Atlanta Center
05:42PM 32.8619 -85.5844 333° Northwest 361 415 40,000  Level Atlanta Center
05:43PM 32.9511 -85.6356 334° Northwest 361 415 40,000  Level Atlanta Center
05:44PM 33.0403 -85.6892 333° Northwest 361 415 40,000  Level Atlanta Center
05:45PM 33.1292 -85.7431 333° Northwest 361 415 40,000  Level Atlanta Center
05:46PM 33.2203 -85.7969 334° Northwest 361 415 40,000  Level Atlanta Center
05:47PM 33.3072 -85.8483 334° Northwest 361 415 40,000  Level Atlanta Center
05:48PM 33.3942 -85.9025 333° Northwest 361 415 40,000  Level Atlanta Center
05:49PM 33.4828 -85.9592 332° Northwest 355 409 40,000  Level Atlanta Center
05:50PM 33.5678 -86.0033 337° Northwest 355 409 40,000  Level Atlanta Center
05:51PM 33.6483 -86.0575 331° Northwest 350 403 40,000  Level Atlanta Center
05:52PM 33.7350 -86.1097 333° Northwest 350 403 40,000  Level Atlanta Center
05:53PM 33.8239 -86.1642 333° Northwest 350 403 40,000  Level Atlanta Center
05:54PM 33.9106 -86.2164 333° Northwest 345 397 40,000  Level Atlanta Center
05:55PM 33.9994 -86.2689 334° Northwest 345 397 40,000  Level Atlanta Center
05:56PM 34.0861 -86.3214 333° Northwest 345 397 40,000  Level Atlanta Center
05:57PM 34.1728 -86.3764 332° Northwest 345 397 40,000  Level Atlanta Center
05:58PM 34.2617 -86.4292 334° Northwest 345 397 40,000  Level Atlanta Center
05:59PM 34.3481 -86.4842 332° Northwest 345 397 40,000  Level Atlanta Center
06:00PM 34.4347 -86.5372 333° Northwest 345 397 40,000  Level Atlanta Center
06:01PM 34.5214 -86.5903 333° Northwest 345 397 40,000  Level Atlanta Center
06:02PM 34.6056 -86.6458 331° Northwest 345 397 40,000  Level Atlanta Center
06:03PM 34.7039 -86.7061 333° Northwest 350 403 40,000  Level Memphis Center
06:04PM 34.7894 -86.7600 333° Northwest 349 402 40,000  Level Memphis Center
06:05PM 34.8756 -86.8133 333° Northwest 349 402 40,000  Level Memphis Center
06:06PM 34.9597 -86.8664 333° Northwest 345 397 40,000  Level Memphis Center
06:07PM 35.0622 -86.9303 333° Northwest 344 396 40,000  Level Memphis Center
06:08PM 35.1478 -86.9842 333° Northwest 345 397 40,000  Level Memphis Center
06:09PM 35.2336 -87.0383 333° Northwest 345 397 40,000  Level Memphis Center
06:10PM 35.3197 -87.0925 333° Northwest 346 398 40,000  Level Memphis Center
06:11PM 35.4158 -87.1531 333° Northwest 347 399 40,000  Level Memphis Center
06:12PM 35.5039 -87.2094 332° Northwest 348 400 40,000  Level Memphis Center
06:13PM 35.5922 -87.2658 333° Northwest 350 403 40,000  Level Memphis Center
06:14PM 35.6806 -87.3231 332° Northwest 351 404 40,000  Level Memphis Center
06:15PM 35.7689 -87.3800 332° Northwest 351 404 40,000  Level Memphis Center
06:16PM 35.8733 -87.4472 332° Northwest 354 407 40,000  Level Memphis Center
06:17PM 35.9617 -87.5053 332° Northwest 357 411 40,000  Level Memphis Center
06:18PM 36.0508 -87.5636 332° Northwest 357 411 40,000  Level Memphis Center
06:20PM 36.1397 -87.6206 333° Northwest 357 411 40,000  Level Memphis Center
06:21PM 36.2275 -87.6781 332° Northwest 356 410 40,000  Level Memphis Center
06:22PM 36.3150 -87.7356 332° Northwest 355 409 40,000  Level Memphis Center
06:23PM 36.4042 -87.7942 332° Northwest 355 409 40,000  Level Memphis Center
06:24PM 36.4919 -87.8522 332° Northwest 355 409 40,000  Level Memphis Center
06:25PM 36.5956 -87.9197 332° Northwest 355 409 40,000  Level Memphis Center
06:26PM 36.6850 -87.9778 333° Northwest 355 409 40,000  Level Memphis Center
06:27PM 36.7739 -88.0367 332° Northwest 355 409 40,000  Level Memphis Center
06:28PM 36.8622 -88.0953 332° Northwest 355 409 40,000  Level Memphis Center
06:29PM 36.9425 -88.1478 332° Northwest 355 409 40,000  Level Memphis Center
06:30PM 37.0472 -88.2181 332° Northwest 356 410 40,000  Level Memphis Center
06:31PM 37.1350 -88.2772 332° Northwest 356 410 40,000  Level Memphis Center
06:32PM 37.2233 -88.3358 332° Northwest 356 410 40,000  Level Memphis Center
06:33PM 37.3106 -88.3944 332° Northwest 357 411 40,000  Level Memphis Center
06:34PM 37.3983 -88.4528 332° Northwest 357 411 40,000  Level Memphis Center
06:35PM 37.5011 -88.5231 332° Northwest 356 410 40,000  Level Memphis Center
06:36PM 37.5886 -88.5825 332° Northwest 356 410 40,000  Level Memphis Center
06:37PM 37.6469 -88.6208 333° Northwest 356 410 40,000  Level Kansas City Center
06:38PM 37.7364 -88.6825 331° Northwest 358 412 40,000  Level Kansas City Center
06:39PM 37.8233 -88.7422 332° Northwest 359 413 40,000  Level Kansas City Center
06:40PM 37.9125 -88.8028 332° Northwest 363 418 40,000  Level Kansas City Center
06:41PM 38.0183 -88.8744 332° Northwest 363 418 40,000  Level Kansas City Center
06:42PM 38.1053 -88.9339 332° Northwest 362 417 40,000  Level Kansas City Center
06:43PM 38.1933 -88.9958 331° Northwest 361 415 40,000  Level Kansas City Center
06:44PM 38.2806 -89.0578 331° Northwest 361 415 40,000  Level Kansas City Center
06:45PM 38.3842 -89.1297 331° Northwest 361 415 40,000  Level Kansas City Center
06:46PM 38.4725 -89.1903 332° Northwest 361 415 40,000  Level Kansas City Center
06:47PM 38.5608 -89.2522 331° Northwest 361 415 40,000  Level Kansas City Center
06:48PM 38.6506 -89.3142 332° Northwest 361 415 40,000  Level Kansas City Center
06:49PM 38.7389 -89.3769 331° Northwest 361 415 40,000  Level Kansas City Center
06:50PM 38.8269 -89.4394 331° Northwest 362 417 40,000  Level Kansas City Center
06:51PM 38.9156 -89.5017 331° Northwest 362 417 40,000  Level Kansas City Center
06:52PM 39.0247 -89.5786 331° Northwest 363 418 40,000 -300 Level Kansas City Center
06:53PM 39.1108 -89.6400 331° Northwest 364 419 39,400 -780 Descending Kansas City Center
06:54PM 39.1997 -89.7039 331° Northwest 365 420 38,400 -840 Descending Kansas City Center
06:55PM 39.2908 -89.7667 332° Northwest 368 423 37,700 -540 Descending Kansas City Center
06:56PM 39.3808 -89.8311 331° Northwest 370 426 37,400 -420 Descending Kansas City Center
06:57PM 39.4894 -89.9100 331° Northwest 373 429 36,900 -600 Descending Kansas City Center
06:59PM 39.5747 -89.9731 330° Northwest 363 418 36,200 -660 Descending Kansas City Center
07:00PM 39.6608 -90.0350 331° Northwest 358 412 35,600 -600 Descending Kansas City Center
07:01PM 39.7622 -90.1064 332° Northwest 363 418 35,000 -660 Descending Kansas City Center
07:02PM 39.8539 -90.1742 330° Northwest 372 428 34,300 -480 Descending Kansas City Center
07:03PM 39.9461 -90.2433 330° Northwest 374 430 34,000 -480 Descending Kansas City Center
07:04PM 40.0400 -90.3114 331° Northwest 379 436 33,400 -600 Descending Kansas City Center
07:05PM 40.1311 -90.3794 330° Northwest 379 436 32,800 -720 Descending Kansas City Center
07:06PM 40.2253 -90.4481 331° Northwest 379 436 32,000 -780 Descending Kansas City Center
07:07PM 40.3186 -90.5178 330° Northwest 381 438 31,300 -720 Descending Kansas City Center
07:07PM 40.3753 -90.5597 331° Northwest 384 442 30,900 -780 Descending Chicago Center
07:08PM 40.4689 -90.6294 330° Northwest 386 444 30,100 -780 Descending Chicago Center
07:09PM 40.5622 -90.7006 330° Northwest 387 445 29,400 -720 Descending Chicago Center
07:10PM 40.6583 -90.7714 331° Northwest 391 450 28,700 -780 Descending Chicago Center
07:11PM 40.7731 -90.8581 330° Northwest 394 453 27,800 -960 Descending Chicago Center
07:12PM 40.8689 -90.9297 331° Northwest 394 453 26,800 -1,320 Descending Chicago Center
07:14PM 40.9611 -91.0008 330° Northwest 384 442 25,100 -1,920 Descending Chicago Center
07:15PM 41.0553 -91.0722 330° Northwest 388 447 22,900 -2,280 Descending Chicago Center
07:16PM 41.1478 -91.1425 330° Northwest 385 443 20,400 -2,580 Descending Chicago Center
07:17PM 41.2356 -91.2081 331° Northwest 366 421 17,600 -2,760 Descending Chicago Center
07:18PM 41.3208 -91.2733 330° Northwest 355 409 14,800 -2,220 Descending Chicago Center
07:19PM 41.4131 -91.3425 331° Northwest 325 374 13,100 -1,380 Descending Chicago Center
07:20PM 41.4883 -91.4031 329° Northwest 315 362 12,000 -1,200 Descending Chicago Center
07:21PM 41.5675 -91.4606 331° Northwest 325 374 10,700 -1,500 Descending Chicago Center
07:22PM 41.6517 -91.4875 347° North 313 360 8,900 -2,280 Descending Chicago Center
07:23PM 41.7356 -91.5203 344° North 266 306 6,000 -2,520 Descending Chicago Center
07:24PM 41.7967 -91.5564 336° Northwest 249 287 3,700 -1,740 Descending Chicago Center
07:25PM 41.8456 -91.6075 322° Northwest 233 268 2,500 -960 Descending Chicago Center
07:26PM 41.8850 -91.6608 315° West 212 244 1,800 -720 Descending Chicago Center
07:28PM 41.8833 -91.7000 334° Northwest  Level FlightAware Approximate
07:35PM 41.8847 -91.7108 334° Northwest  Level Estimated